sensor_id;sensor_type;location;lat;lon;timestamp;P1;durP1;ratioP1;P2;durP2;ratioP2
18443;SDS011;9350;53.176;8.194;2023-11-22T00:02:07;8.20;;;5.03;;
18443;SDS011;9350;53.176;8.194;2023-11-22T00:04:34;7.72;;;5.50;;
18443;SDS011;9350;53.176;8.194;2023-11-22T00:07:01;8.90;;;5.43;;
18443;SDS011;9350;53.176;8.194;2023-11-22T00:09:29;9.40;;;5.55;;
18443;SDS011;9350;53.176;8.194;2023-11-22T00:11:55;7.95;;;4.72;;
18443;SDS011;9350;53.176;8.194;2023-11-22T00:14:25;7.43;;;5.22;;
18443;SDS011;9350;53.176;8.194;2023-11-22T00:16:52;10.63;;;5.45;;
18443;SDS011;9350;53.176;8.194;2023-11-22T00:19:18;7.95;;;5.07;;
18443;SDS011;9350;53.176;8.194;2023-11-22T00:21:47;7.43;;;5.35;;
18443;SDS011;9350;53.176;8.194;2023-11-22T00:24:14;6.88;;;4.85;;
18443;SDS011;9350;53.176;8.194;2023-11-22T00:26:42;8.20;;;5.00;;
18443;SDS011;9350;53.176;8.194;2023-11-22T00:29:08;10.48;;;5.30;;
18443;SDS011;9350;53.176;8.194;2023-11-22T00:31:35;7.57;;;5.13;;
18443;SDS011;9350;53.176;8.194;2023-11-22T00:34:02;7.43;;;4.60;;
18443;SDS011;9350;53.176;8.194;2023-11-22T00:36:28;8.07;;;4.80;;
18443;SDS011;9350;53.176;8.194;2023-11-22T00:38:55;9.60;;;5.55;;
18443;SDS011;9350;53.176;8.194;2023-11-22T00:41:22;9.15;;;4.80;;
18443;SDS011;9350;53.176;8.194;2023-11-22T00:43:50;7.78;;;4.78;;
18443;SDS011;9350;53.176;8.194;2023-11-22T00:46:16;10.10;;;4.80;;
18443;SDS011;9350;53.176;8.194;2023-11-22T00:48:43;8.13;;;4.85;;
18443;SDS011;9350;53.176;8.194;2023-11-22T00:51:10;6.38;;;4.85;;
18443;SDS011;9350;53.176;8.194;2023-11-22T00:53:37;12.20;;;5.22;;
18443;SDS011;9350;53.176;8.194;2023-11-22T00:56:04;10.25;;;4.85;;
18443;SDS011;9350;53.176;8.194;2023-11-22T00:58:32;9.13;;;4.78;;
18443;SDS011;9350;53.176;8.194;2023-11-22T01:01:00;8.32;;;4.90;;
18443;SDS011;9350;53.176;8.194;2023-11-22T01:03:27;8.77;;;5.15;;
18443;SDS011;9350;53.176;8.194;2023-11-22T01:05:53;7.38;;;4.30;;
18443;SDS011;9350;53.176;8.194;2023-11-22T01:08:20;11.15;;;6.32;;
18443;SDS011;9350;53.176;8.194;2023-11-22T01:10:47;8.77;;;5.18;;
18443;SDS011;9350;53.176;8.194;2023-11-22T01:13:14;7.22;;;5.18;;
18443;SDS011;9350;53.176;8.194;2023-11-22T01:15:40;8.23;;;5.28;;
18443;SDS011;9350;53.176;8.194;2023-11-22T01:18:08;7.93;;;5.53;;
18443;SDS011;9350;53.176;8.194;2023-11-22T01:20:35;7.25;;;4.68;;
18443;SDS011;9350;53.176;8.194;2023-11-22T01:23:02;6.65;;;4.78;;
18443;SDS011;9350;53.176;8.194;2023-11-22T01:25:29;9.43;;;5.32;;
18443;SDS011;9350;53.176;8.194;2023-11-22T01:27:55;7.78;;;4.75;;
18443;SDS011;9350;53.176;8.194;2023-11-22T01:30:22;8.98;;;5.28;;
18443;SDS011;9350;53.176;8.194;2023-11-22T01:32:49;8.52;;;4.85;;
18443;SDS011;9350;53.176;8.194;2023-11-22T01:35:17;8.95;;;5.22;;
18443;SDS011;9350;53.176;8.194;2023-11-22T01:37:43;9.65;;;4.72;;
18443;SDS011;9350;53.176;8.194;2023-11-22T01:40:10;9.23;;;5.43;;
18443;SDS011;9350;53.176;8.194;2023-11-22T01:42:37;8.90;;;5.03;;
18443;SDS011;9350;53.176;8.194;2023-11-22T01:45:05;8.00;;;5.68;;
18443;SDS011;9350;53.176;8.194;2023-11-22T01:47:32;8.30;;;4.63;;
18443;SDS011;9350;53.176;8.194;2023-11-22T01:50:00;9.15;;;5.43;;
18443;SDS011;9350;53.176;8.194;2023-11-22T01:52:28;9.07;;;5.10;;
18443;SDS011;9350;53.176;8.194;2023-11-22T01:54:55;9.05;;;5.30;;
18443;SDS011;9350;53.176;8.194;2023-11-22T01:57:23;9.10;;;5.28;;
18443;SDS011;9350;53.176;8.194;2023-11-22T01:59:49;8.10;;;5.32;;
18443;SDS011;9350;53.176;8.194;2023-11-22T02:02:16;11.05;;;5.55;;
18443;SDS011;9350;53.176;8.194;2023-11-22T02:04:43;9.00;;;5.18;;
18443;SDS011;9350;53.176;8.194;2023-11-22T02:07:10;8.57;;;5.45;;
18443;SDS011;9350;53.176;8.194;2023-11-22T02:09:38;11.02;;;5.97;;
18443;SDS011;9350;53.176;8.194;2023-11-22T02:12:05;9.52;;;5.55;;
18443;SDS011;9350;53.176;8.194;2023-11-22T02:14:33;14.48;;;5.60;;
18443;SDS011;9350;53.176;8.194;2023-11-22T02:17:00;8.05;;;4.97;;
18443;SDS011;9350;53.176;8.194;2023-11-22T02:19:27;7.28;;;4.97;;
18443;SDS011;9350;53.176;8.194;2023-11-22T02:21:55;10.23;;;5.10;;
18443;SDS011;9350;53.176;8.194;2023-11-22T02:24:23;10.77;;;5.40;;
18443;SDS011;9350;53.176;8.194;2023-11-22T02:26:51;10.30;;;5.35;;
18443;SDS011;9350;53.176;8.194;2023-11-22T02:29:18;9.30;;;5.65;;
18443;SDS011;9350;53.176;8.194;2023-11-22T02:31:45;6.15;;;4.80;;
18443;SDS011;9350;53.176;8.194;2023-11-22T02:34:12;6.72;;;4.43;;
18443;SDS011;9350;53.176;8.194;2023-11-22T02:36:41;11.02;;;5.00;;
18443;SDS011;9350;53.176;8.194;2023-11-22T02:39:09;7.20;;;4.93;;
18443;SDS011;9350;53.176;8.194;2023-11-22T02:41:37;8.68;;;5.07;;
18443;SDS011;9350;53.176;8.194;2023-11-22T02:44:04;13.50;;;4.95;;
18443;SDS011;9350;53.176;8.194;2023-11-22T02:46:32;7.60;;;5.03;;
18443;SDS011;9350;53.176;8.194;2023-11-22T02:48:59;11.38;;;5.13;;
18443;SDS011;9350;53.176;8.194;2023-11-22T02:51:25;8.77;;;4.63;;
18443;SDS011;9350;53.176;8.194;2023-11-22T02:53:53;6.15;;;4.68;;
18443;SDS011;9350;53.176;8.194;2023-11-22T02:56:20;7.47;;;4.93;;
18443;SDS011;9350;53.176;8.194;2023-11-22T02:58:48;9.57;;;4.93;;
18443;SDS011;9350;53.176;8.194;2023-11-22T03:01:15;6.03;;;4.53;;
18443;SDS011;9350;53.176;8.194;2023-11-22T03:03:42;8.38;;;4.85;;
18443;SDS011;9350;53.176;8.194;2023-11-22T03:06:09;8.95;;;4.97;;
18443;SDS011;9350;53.176;8.194;2023-11-22T03:08:36;8.23;;;4.72;;
18443;SDS011;9350;53.176;8.194;2023-11-22T03:11:02;7.55;;;4.68;;
18443;SDS011;9350;53.176;8.194;2023-11-22T03:13:29;8.63;;;4.40;;
18443;SDS011;9350;53.176;8.194;2023-11-22T03:15:57;9.02;;;4.35;;
18443;SDS011;9350;53.176;8.194;2023-11-22T03:18:25;8.70;;;4.90;;
18443;SDS011;9350;53.176;8.194;2023-11-22T03:20:52;10.68;;;5.25;;
18443;SDS011;9350;53.176;8.194;2023-11-22T03:23:20;7.50;;;5.03;;
18443;SDS011;9350;53.176;8.194;2023-11-22T03:25:46;8.73;;;5.13;;
18443;SDS011;9350;53.176;8.194;2023-11-22T03:28:13;9.63;;;5.55;;
18443;SDS011;9350;53.176;8.194;2023-11-22T03:30:40;9.05;;;5.13;;
18443;SDS011;9350;53.176;8.194;2023-11-22T03:33:08;9.30;;;5.15;;
18443;SDS011;9350;53.176;8.194;2023-11-22T03:35:35;8.43;;;5.30;;
18443;SDS011;9350;53.176;8.194;2023-11-22T03:38:01;11.88;;;6.13;;
18443;SDS011;9350;53.176;8.194;2023-11-22T03:40:28;9.50;;;5.15;;
18443;SDS011;9350;53.176;8.194;2023-11-22T03:42:55;11.32;;;5.78;;
18443;SDS011;9350;53.176;8.194;2023-11-22T03:45:21;9.50;;;5.20;;
18443;SDS011;9350;53.176;8.194;2023-11-22T03:47:48;8.48;;;5.07;;
18443;SDS011;9350;53.176;8.194;2023-11-22T03:50:16;8.02;;;4.88;;
18443;SDS011;9350;53.176;8.194;2023-11-22T03:52:43;8.25;;;4.90;;
18443;SDS011;9350;53.176;8.194;2023-11-22T03:55:09;8.77;;;5.05;;
18443;SDS011;9350;53.176;8.194;2023-11-22T03:57:36;8.88;;;4.97;;
18443;SDS011;9350;53.176;8.194;2023-11-22T04:00:03;7.47;;;4.85;;
18443;SDS011;9350;53.176;8.194;2023-11-22T04:02:31;11.27;;;5.45;;
18443;SDS011;9350;53.176;8.194;2023-11-22T04:04:58;8.18;;;5.00;;
18443;SDS011;9350;53.176;8.194;2023-11-22T04:07:26;12.55;;;5.53;;
18443;SDS011;9350;53.176;8.194;2023-11-22T04:09:53;9.55;;;5.18;;
18443;SDS011;9350;53.176;8.194;2023-11-22T04:12:20;7.70;;;5.32;;
18443;SDS011;9350;53.176;8.194;2023-11-22T04:14:47;9.75;;;4.90;;
18443;SDS011;9350;53.176;8.194;2023-11-22T04:17:14;8.10;;;5.22;;
18443;SDS011;9350;53.176;8.194;2023-11-22T04:19:41;8.38;;;5.28;;
18443;SDS011;9350;53.176;8.194;2023-11-22T04:22:08;8.93;;;4.80;;
18443;SDS011;9350;53.176;8.194;2023-11-22T04:24:37;9.80;;;5.82;;
18443;SDS011;9350;53.176;8.194;2023-11-22T04:27:04;10.23;;;5.05;;
18443;SDS011;9350;53.176;8.194;2023-11-22T04:29:31;9.57;;;5.75;;
18443;SDS011;9350;53.176;8.194;2023-11-22T04:31:57;7.68;;;4.82;;
18443;SDS011;9350;53.176;8.194;2023-11-22T04:34:24;10.13;;;5.30;;
18443;SDS011;9350;53.176;8.194;2023-11-22T04:36:51;9.60;;;5.50;;
18443;SDS011;9350;53.176;8.194;2023-11-22T04:39:17;8.63;;;4.85;;
18443;SDS011;9350;53.176;8.194;2023-11-22T04:41:46;10.27;;;5.30;;
18443;SDS011;9350;53.176;8.194;2023-11-22T04:44:13;9.88;;;5.47;;
18443;SDS011;9350;53.176;8.194;2023-11-22T04:46:39;8.73;;;5.57;;
18443;SDS011;9350;53.176;8.194;2023-11-22T04:49:06;11.93;;;5.30;;
18443;SDS011;9350;53.176;8.194;2023-11-22T04:51:33;8.75;;;5.57;;
18443;SDS011;9350;53.176;8.194;2023-11-22T04:54:00;10.02;;;5.75;;
18443;SDS011;9350;53.176;8.194;2023-11-22T04:56:26;8.10;;;5.05;;
18443;SDS011;9350;53.176;8.194;2023-11-22T04:58:54;8.70;;;5.13;;
18443;SDS011;9350;53.176;8.194;2023-11-22T05:01:22;9.57;;;5.30;;
18443;SDS011;9350;53.176;8.194;2023-11-22T05:03:48;10.43;;;5.57;;
18443;SDS011;9350;53.176;8.194;2023-11-22T05:06:15;9.50;;;5.43;;
18443;SDS011;9350;53.176;8.194;2023-11-22T05:08:42;10.85;;;5.72;;
18443;SDS011;9350;53.176;8.194;2023-11-22T05:11:09;8.82;;;5.68;;
18443;SDS011;9350;53.176;8.194;2023-11-22T05:13:35;9.70;;;5.32;;
18443;SDS011;9350;53.176;8.194;2023-11-22T05:16:04;6.75;;;4.50;;
18443;SDS011;9350;53.176;8.194;2023-11-22T05:18:31;7.75;;;5.07;;
18443;SDS011;9350;53.176;8.194;2023-11-22T05:20:58;10.38;;;4.95;;
18443;SDS011;9350;53.176;8.194;2023-11-22T05:23:24;9.07;;;4.68;;
18443;SDS011;9350;53.176;8.194;2023-11-22T05:25:51;7.13;;;5.22;;
18443;SDS011;9350;53.176;8.194;2023-11-22T05:28:18;9.15;;;4.80;;
18443;SDS011;9350;53.176;8.194;2023-11-22T05:30:44;9.95;;;5.13;;
18443;SDS011;9350;53.176;8.194;2023-11-22T05:33:12;7.57;;;5.30;;
18443;SDS011;9350;53.176;8.194;2023-11-22T05:35:39;10.45;;;5.30;;
18443;SDS011;9350;53.176;8.194;2023-11-22T05:38:06;8.52;;;5.03;;
18443;SDS011;9350;53.176;8.194;2023-11-22T05:40:33;10.63;;;5.13;;
18443;SDS011;9350;53.176;8.194;2023-11-22T05:43:00;11.15;;;5.28;;
18443;SDS011;9350;53.176;8.194;2023-11-22T05:45:27;13.05;;;5.63;;
18443;SDS011;9350;53.176;8.194;2023-11-22T05:47:53;9.13;;;5.55;;
18443;SDS011;9350;53.176;8.194;2023-11-22T05:50:21;8.90;;;5.78;;
18443;SDS011;9350;53.176;8.194;2023-11-22T05:52:48;11.93;;;5.93;;
18443;SDS011;9350;53.176;8.194;2023-11-22T05:55:15;9.65;;;5.97;;
18443;SDS011;9350;53.176;8.194;2023-11-22T05:57:43;10.27;;;6.00;;
18443;SDS011;9350;53.176;8.194;2023-11-22T06:00:10;11.57;;;6.85;;
18443;SDS011;9350;53.176;8.194;2023-11-22T06:02:39;13.43;;;6.78;;
18443;SDS011;9350;53.176;8.194;2023-11-22T06:05:06;12.18;;;6.35;;
18443;SDS011;9350;53.176;8.194;2023-11-22T06:07:35;14.90;;;7.45;;
18443;SDS011;9350;53.176;8.194;2023-11-22T06:10:02;19.10;;;8.68;;
18443;SDS011;9350;53.176;8.194;2023-11-22T06:12:29;17.58;;;8.05;;
18443;SDS011;9350;53.176;8.194;2023-11-22T06:14:56;13.75;;;8.02;;
18443;SDS011;9350;53.176;8.194;2023-11-22T06:17:22;13.98;;;7.95;;
18443;SDS011;9350;53.176;8.194;2023-11-22T06:19:49;15.05;;;8.32;;
18443;SDS011;9350;53.176;8.194;2023-11-22T06:22:16;12.98;;;8.23;;
18443;SDS011;9350;53.176;8.194;2023-11-22T06:24:45;12.50;;;7.75;;
18443;SDS011;9350;53.176;8.194;2023-11-22T06:27:13;14.68;;;8.50;;
18443;SDS011;9350;53.176;8.194;2023-11-22T06:29:40;12.32;;;7.88;;
18443;SDS011;9350;53.176;8.194;2023-11-22T06:32:08;14.55;;;8.27;;
18443;SDS011;9350;53.176;8.194;2023-11-22T06:34:35;14.25;;;7.70;;
18443;SDS011;9350;53.176;8.194;2023-11-22T06:37:02;15.68;;;9.25;;
18443;SDS011;9350;53.176;8.194;2023-11-22T06:39:29;16.10;;;8.90;;
18443;SDS011;9350;53.176;8.194;2023-11-22T06:41:57;18.88;;;9.65;;
18443;SDS011;9350;53.176;8.194;2023-11-22T06:44:23;15.52;;;8.65;;
18443;SDS011;9350;53.176;8.194;2023-11-22T06:46:51;14.40;;;8.20;;
18443;SDS011;9350;53.176;8.194;2023-11-22T06:49:18;15.77;;;8.68;;
18443;SDS011;9350;53.176;8.194;2023-11-22T06:51:45;15.40;;;8.85;;
18443;SDS011;9350;53.176;8.194;2023-11-22T06:54:12;15.75;;;7.93;;
18443;SDS011;9350;53.176;8.194;2023-11-22T06:56:39;11.50;;;6.90;;
18443;SDS011;9350;53.176;8.194;2023-11-22T06:59:07;11.15;;;6.78;;
18443;SDS011;9350;53.176;8.194;2023-11-22T07:01:34;12.63;;;7.00;;
18443;SDS011;9350;53.176;8.194;2023-11-22T07:04:01;12.20;;;7.32;;
18443;SDS011;9350;53.176;8.194;2023-11-22T07:06:29;13.25;;;7.40;;
18443;SDS011;9350;53.176;8.194;2023-11-22T07:08:55;17.95;;;8.85;;
18443;SDS011;9350;53.176;8.194;2023-11-22T07:11:23;21.60;;;10.45;;
18443;SDS011;9350;53.176;8.194;2023-11-22T07:13:51;21.05;;;8.52;;
18443;SDS011;9350;53.176;8.194;2023-11-22T07:16:19;16.17;;;8.40;;
18443;SDS011;9350;53.176;8.194;2023-11-22T07:18:45;16.38;;;8.63;;
18443;SDS011;9350;53.176;8.194;2023-11-22T07:21:12;15.95;;;8.18;;
18443;SDS011;9350;53.176;8.194;2023-11-22T07:23:39;16.40;;;7.45;;
18443;SDS011;9350;53.176;8.194;2023-11-22T07:26:05;17.35;;;7.55;;
18443;SDS011;9350;53.176;8.194;2023-11-22T07:28:32;12.82;;;7.03;;
18443;SDS011;9350;53.176;8.194;2023-11-22T07:31:00;12.98;;;7.35;;
18443;SDS011;9350;53.176;8.194;2023-11-22T07:33:28;12.82;;;7.13;;
18443;SDS011;9350;53.176;8.194;2023-11-22T07:35:55;13.73;;;7.10;;
18443;SDS011;9350;53.176;8.194;2023-11-22T07:38:23;14.10;;;7.32;;
18443;SDS011;9350;53.176;8.194;2023-11-22T07:40:50;13.82;;;7.03;;
18443;SDS011;9350;53.176;8.194;2023-11-22T07:43:17;16.23;;;7.40;;
18443;SDS011;9350;53.176;8.194;2023-11-22T07:45:43;13.55;;;7.80;;
18443;SDS011;9350;53.176;8.194;2023-11-22T07:48:10;16.45;;;8.52;;
18443;SDS011;9350;53.176;8.194;2023-11-22T07:50:39;15.23;;;8.20;;
18443;SDS011;9350;53.176;8.194;2023-11-22T07:53:08;16.25;;;7.60;;
18443;SDS011;9350;53.176;8.194;2023-11-22T07:55:36;15.48;;;8.40;;
18443;SDS011;9350;53.176;8.194;2023-11-22T07:58:03;14.48;;;7.53;;
18443;SDS011;9350;53.176;8.194;2023-11-22T08:00:31;15.60;;;8.85;;
18443;SDS011;9350;53.176;8.194;2023-11-22T08:02:58;27.70;;;11.90;;
18443;SDS011;9350;53.176;8.194;2023-11-22T08:05:27;18.58;;;9.75;;
18443;SDS011;9350;53.176;8.194;2023-11-22T08:07:55;27.17;;;11.10;;
18443;SDS011;9350;53.176;8.194;2023-11-22T08:10:22;17.77;;;9.38;;
18443;SDS011;9350;53.176;8.194;2023-11-22T08:12:50;17.48;;;8.75;;
18443;SDS011;9350;53.176;8.194;2023-11-22T08:15:17;14.90;;;8.25;;
18443;SDS011;9350;53.176;8.194;2023-11-22T08:17:44;15.82;;;8.55;;
18443;SDS011;9350;53.176;8.194;2023-11-22T08:20:11;19.35;;;8.27;;
18443;SDS011;9350;53.176;8.194;2023-11-22T08:22:42;17.70;;;8.00;;
18443;SDS011;9350;53.176;8.194;2023-11-22T08:25:11;15.73;;;7.88;;
18443;SDS011;9350;53.176;8.194;2023-11-22T08:27:38;12.45;;;6.82;;
18443;SDS011;9350;53.176;8.194;2023-11-22T08:30:06;13.57;;;6.95;;
18443;SDS011;9350;53.176;8.194;2023-11-22T08:32:38;16.63;;;7.53;;
18443;SDS011;9350;53.176;8.194;2023-11-22T08:35:06;13.02;;;7.03;;
18443;SDS011;9350;53.176;8.194;2023-11-22T08:37:33;15.52;;;7.18;;
18443;SDS011;9350;53.176;8.194;2023-11-22T08:40:03;13.30;;;7.13;;
18443;SDS011;9350;53.176;8.194;2023-11-22T08:42:32;10.57;;;6.35;;
18443;SDS011;9350;53.176;8.194;2023-11-22T08:45:00;11.55;;;6.93;;
18443;SDS011;9350;53.176;8.194;2023-11-22T08:47:27;10.35;;;6.38;;
18443;SDS011;9350;53.176;8.194;2023-11-22T08:49:54;12.20;;;6.65;;
18443;SDS011;9350;53.176;8.194;2023-11-22T08:52:21;10.02;;;6.50;;
18443;SDS011;9350;53.176;8.194;2023-11-22T08:54:48;14.43;;;7.43;;
18443;SDS011;9350;53.176;8.194;2023-11-22T08:57:15;10.82;;;6.70;;
18443;SDS011;9350;53.176;8.194;2023-11-22T08:59:43;12.32;;;6.72;;
18443;SDS011;9350;53.176;8.194;2023-11-22T09:02:09;10.18;;;6.95;;
18443;SDS011;9350;53.176;8.194;2023-11-22T09:04:37;14.35;;;6.80;;
18443;SDS011;9350;53.176;8.194;2023-11-22T09:07:06;13.07;;;6.78;;
18443;SDS011;9350;53.176;8.194;2023-11-22T09:09:35;12.93;;;6.40;;
18443;SDS011;9350;53.176;8.194;2023-11-22T09:12:02;13.52;;;6.95;;
18443;SDS011;9350;53.176;8.194;2023-11-22T09:14:29;12.85;;;7.03;;
18443;SDS011;9350;53.176;8.194;2023-11-22T09:16:57;11.95;;;6.65;;
18443;SDS011;9350;53.176;8.194;2023-11-22T09:19:26;11.25;;;7.25;;
18443;SDS011;9350;53.176;8.194;2023-11-22T09:21:53;13.68;;;7.43;;
18443;SDS011;9350;53.176;8.194;2023-11-22T09:24:20;13.13;;;7.22;;
18443;SDS011;9350;53.176;8.194;2023-11-22T09:26:47;14.02;;;6.43;;
18443;SDS011;9350;53.176;8.194;2023-11-22T09:29:13;14.52;;;7.35;;
18443;SDS011;9350;53.176;8.194;2023-11-22T09:31:40;11.50;;;6.85;;
18443;SDS011;9350;53.176;8.194;2023-11-22T09:34:09;11.75;;;7.03;;
18443;SDS011;9350;53.176;8.194;2023-11-22T09:36:36;12.15;;;6.90;;
18443;SDS011;9350;53.176;8.194;2023-11-22T09:39:03;13.10;;;7.35;;
18443;SDS011;9350;53.176;8.194;2023-11-22T09:41:33;28.60;;;12.30;;
18443;SDS011;9350;53.176;8.194;2023-11-22T09:44:00;19.40;;;8.70;;
18443;SDS011;9350;53.176;8.194;2023-11-22T09:46:26;12.85;;;7.75;;
18443;SDS011;9350;53.176;8.194;2023-11-22T09:48:55;14.43;;;7.35;;
18443;SDS011;9350;53.176;8.194;2023-11-22T09:51:24;18.83;;;9.68;;
18443;SDS011;9350;53.176;8.194;2023-11-22T09:53:55;14.43;;;8.45;;
18443;SDS011;9350;53.176;8.194;2023-11-22T09:56:24;13.55;;;7.57;;
18443;SDS011;9350;53.176;8.194;2023-11-22T09:58:51;14.88;;;7.53;;
18443;SDS011;9350;53.176;8.194;2023-11-22T10:01:21;11.98;;;7.32;;
18443;SDS011;9350;53.176;8.194;2023-11-22T10:03:48;12.45;;;7.22;;
18443;SDS011;9350;53.176;8.194;2023-11-22T10:06:15;13.30;;;7.00;;
18443;SDS011;9350;53.176;8.194;2023-11-22T10:08:44;10.23;;;6.22;;
18443;SDS011;9350;53.176;8.194;2023-11-22T10:11:13;11.57;;;6.70;;
18443;SDS011;9350;53.176;8.194;2023-11-22T10:13:41;9.45;;;6.60;;
18443;SDS011;9350;53.176;8.194;2023-11-22T10:16:09;10.95;;;6.72;;
18443;SDS011;9350;53.176;8.194;2023-11-22T10:18:38;13.00;;;6.90;;
18443;SDS011;9350;53.176;8.194;2023-11-22T10:21:16;17.20;;;6.80;;
18443;SDS011;9350;53.176;8.194;2023-11-22T10:23:47;10.88;;;7.03;;
18443;SDS011;9350;53.176;8.194;2023-11-22T10:26:13;13.20;;;6.60;;
18443;SDS011;9350;53.176;8.194;2023-11-22T10:28:41;13.25;;;7.07;;
18443;SDS011;9350;53.176;8.194;2023-11-22T10:31:08;11.27;;;6.85;;
18443;SDS011;9350;53.176;8.194;2023-11-22T10:33:38;11.07;;;6.43;;
18443;SDS011;9350;53.176;8.194;2023-11-22T10:36:05;11.15;;;6.57;;
18443;SDS011;9350;53.176;8.194;2023-11-22T10:38:34;10.52;;;6.40;;
18443;SDS011;9350;53.176;8.194;2023-11-22T10:41:04;11.90;;;7.05;;
18443;SDS011;9350;53.176;8.194;2023-11-22T10:43:32;11.65;;;6.72;;
18443;SDS011;9350;53.176;8.194;2023-11-22T10:46:01;8.95;;;5.82;;
18443;SDS011;9350;53.176;8.194;2023-11-22T10:48:29;13.68;;;6.38;;
18443;SDS011;9350;53.176;8.194;2023-11-22T10:50:58;11.57;;;6.07;;
18443;SDS011;9350;53.176;8.194;2023-11-22T10:53:30;14.45;;;6.35;;
18443;SDS011;9350;53.176;8.194;2023-11-22T10:55:59;10.52;;;5.93;;
18443;SDS011;9350;53.176;8.194;2023-11-22T10:58:36;9.15;;;5.93;;
18443;SDS011;9350;53.176;8.194;2023-11-22T11:01:12;11.88;;;5.55;;
18443;SDS011;9350;53.176;8.194;2023-11-22T11:03:41;9.27;;;6.28;;
18443;SDS011;9350;53.176;8.194;2023-11-22T11:06:14;9.50;;;6.28;;
18443;SDS011;9350;53.176;8.194;2023-11-22T11:08:46;10.30;;;6.22;;
18443;SDS011;9350;53.176;8.194;2023-11-22T11:11:14;9.55;;;5.95;;
18443;SDS011;9350;53.176;8.194;2023-11-22T11:13:42;11.02;;;5.45;;
18443;SDS011;9350;53.176;8.194;2023-11-22T11:16:09;12.77;;;5.38;;
18443;SDS011;9350;53.176;8.194;2023-11-22T11:18:36;9.50;;;5.07;;
18443;SDS011;9350;53.176;8.194;2023-11-22T11:21:07;8.93;;;4.97;;
18443;SDS011;9350;53.176;8.194;2023-11-22T11:23:37;8.68;;;5.25;;
18443;SDS011;9350;53.176;8.194;2023-11-22T11:26:08;11.18;;;5.35;;
18443;SDS011;9350;53.176;8.194;2023-11-22T11:28:43;7.40;;;4.78;;
18443;SDS011;9350;53.176;8.194;2023-11-22T11:31:11;6.60;;;4.47;;
18443;SDS011;9350;53.176;8.194;2023-11-22T11:33:52;6.63;;;4.43;;
18443;SDS011;9350;53.176;8.194;2023-11-22T11:36:21;7.63;;;4.35;;
18443;SDS011;9350;53.176;8.194;2023-11-22T11:38:49;5.88;;;4.45;;
18443;SDS011;9350;53.176;8.194;2023-11-22T11:41:16;6.95;;;3.80;;
18443;SDS011;9350;53.176;8.194;2023-11-22T11:43:45;4.82;;;3.55;;
18443;SDS011;9350;53.176;8.194;2023-11-22T11:46:13;9.52;;;3.80;;
18443;SDS011;9350;53.176;8.194;2023-11-22T11:48:42;5.07;;;3.80;;
18443;SDS011;9350;53.176;8.194;2023-11-22T11:51:09;4.80;;;3.40;;
18443;SDS011;9350;53.176;8.194;2023-11-22T11:53:39;5.57;;;3.35;;
18443;SDS011;9350;53.176;8.194;2023-11-22T11:56:06;7.18;;;3.72;;
18443;SDS011;9350;53.176;8.194;2023-11-22T11:58:33;5.32;;;3.65;;
18443;SDS011;9350;53.176;8.194;2023-11-22T12:01:02;9.40;;;3.58;;
18443;SDS011;9350;53.176;8.194;2023-11-22T12:03:28;6.22;;;3.88;;
18443;SDS011;9350;53.176;8.194;2023-11-22T12:05:55;6.32;;;4.18;;
18443;SDS011;9350;53.176;8.194;2023-11-22T12:08:22;8.02;;;4.38;;
18443;SDS011;9350;53.176;8.194;2023-11-22T12:10:49;5.40;;;3.05;;
18443;SDS011;9350;53.176;8.194;2023-11-22T12:13:16;2.95;;;2.67;;
18443;SDS011;9350;53.176;8.194;2023-11-22T12:15:44;5.43;;;3.13;;
18443;SDS011;9350;53.176;8.194;2023-11-22T12:18:12;5.75;;;3.20;;
18443;SDS011;9350;53.176;8.194;2023-11-22T12:20:39;3.67;;;2.72;;
18443;SDS011;9350;53.176;8.194;2023-11-22T12:23:06;6.20;;;3.10;;
18443;SDS011;9350;53.176;8.194;2023-11-22T12:25:33;4.72;;;3.72;;
18443;SDS011;9350;53.176;8.194;2023-11-22T12:28:01;3.45;;;3.10;;
18443;SDS011;9350;53.176;8.194;2023-11-22T12:30:29;3.35;;;2.90;;
18443;SDS011;9350;53.176;8.194;2023-11-22T12:32:57;4.20;;;3.00;;
18443;SDS011;9350;53.176;8.194;2023-11-22T12:35:28;5.03;;;2.67;;
18443;SDS011;9350;53.176;8.194;2023-11-22T12:37:56;3.28;;;2.60;;
18443;SDS011;9350;53.176;8.194;2023-11-22T12:40:23;5.32;;;3.35;;
18443;SDS011;9350;53.176;8.194;2023-11-22T12:42:53;7.75;;;4.07;;
18443;SDS011;9350;53.176;8.194;2023-11-22T12:45:20;6.30;;;4.10;;
18443;SDS011;9350;53.176;8.194;2023-11-22T12:47:48;2.95;;;2.35;;
18443;SDS011;9350;53.176;8.194;2023-11-22T12:50:33;5.00;;;2.83;;
18443;SDS011;9350;53.176;8.194;2023-11-22T12:53:09;2.60;;;2.35;;
18443;SDS011;9350;53.176;8.194;2023-11-22T12:55:37;5.95;;;3.15;;
18443;SDS011;9350;53.176;8.194;2023-11-22T12:58:04;3.65;;;2.63;;
18443;SDS011;9350;53.176;8.194;2023-11-22T13:00:32;6.28;;;3.13;;
18443;SDS011;9350;53.176;8.194;2023-11-22T13:02:59;3.33;;;2.40;;
18443;SDS011;9350;53.176;8.194;2023-11-22T13:05:25;186.50;;;12.70;;
18443;SDS011;9350;53.176;8.194;2023-11-22T13:07:53;17.67;;;2.80;;
18443;SDS011;9350;53.176;8.194;2023-11-22T13:10:20;16.77;;;2.72;;
18443;SDS011;9350;53.176;8.194;2023-11-22T13:12:50;2.97;;;2.40;;
18443;SDS011;9350;53.176;8.194;2023-11-22T13:15:18;2.20;;;2.00;;
18443;SDS011;9350;53.176;8.194;2023-11-22T13:17:46;2.33;;;2.13;;
18443;SDS011;9350;53.176;8.194;2023-11-22T13:20:12;3.85;;;2.83;;
18443;SDS011;9350;53.176;8.194;2023-11-22T13:22:39;2.92;;;2.25;;
18443;SDS011;9350;53.176;8.194;2023-11-22T13:25:08;4.97;;;4.05;;
18443;SDS011;9350;53.176;8.194;2023-11-22T13:27:38;5.28;;;3.67;;
18443;SDS011;9350;53.176;8.194;2023-11-22T13:30:06;30.73;;;13.45;;
18443;SDS011;9350;53.176;8.194;2023-11-22T13:32:33;13.02;;;7.03;;
18443;SDS011;9350;53.176;8.194;2023-11-22T13:35:00;13.90;;;7.70;;
18443;SDS011;9350;53.176;8.194;2023-11-22T13:37:30;13.57;;;6.40;;
18443;SDS011;9350;53.176;8.194;2023-11-22T13:39:57;8.70;;;4.30;;
18443;SDS011;9350;53.176;8.194;2023-11-22T13:42:25;7.30;;;5.05;;
18443;SDS011;9350;53.176;8.194;2023-11-22T13:44:51;5.53;;;4.05;;
18443;SDS011;9350;53.176;8.194;2023-11-22T13:47:18;10.40;;;3.08;;
18443;SDS011;9350;53.176;8.194;2023-11-22T13:49:46;5.43;;;2.72;;
18443;SDS011;9350;53.176;8.194;2023-11-22T13:52:12;4.80;;;3.55;;
18443;SDS011;9350;53.176;8.194;2023-11-22T13:54:39;9.75;;;4.60;;
18443;SDS011;9350;53.176;8.194;2023-11-22T13:57:06;14.18;;;7.78;;
18443;SDS011;9350;53.176;8.194;2023-11-22T13:59:34;6.20;;;4.22;;
18443;SDS011;9350;53.176;8.194;2023-11-22T14:02:00;3.47;;;3.10;;
18443;SDS011;9350;53.176;8.194;2023-11-22T14:04:27;5.75;;;3.70;;
18443;SDS011;9350;53.176;8.194;2023-11-22T14:06:54;7.30;;;3.75;;
18443;SDS011;9350;53.176;8.194;2023-11-22T14:09:20;4.60;;;3.78;;
18443;SDS011;9350;53.176;8.194;2023-11-22T14:11:47;4.03;;;2.95;;
18443;SDS011;9350;53.176;8.194;2023-11-22T14:14:14;4.63;;;3.22;;
18443;SDS011;9350;53.176;8.194;2023-11-22T14:16:43;6.88;;;4.72;;
18443;SDS011;9350;53.176;8.194;2023-11-22T14:19:10;5.30;;;3.63;;
18443;SDS011;9350;53.176;8.194;2023-11-22T14:21:38;7.88;;;4.55;;
18443;SDS011;9350;53.176;8.194;2023-11-22T14:24:05;3.67;;;3.17;;
18443;SDS011;9350;53.176;8.194;2023-11-22T14:26:33;6.72;;;2.97;;
18443;SDS011;9350;53.176;8.194;2023-11-22T14:29:00;3.60;;;3.05;;
18443;SDS011;9350;53.176;8.194;2023-11-22T14:31:27;9.48;;;5.10;;
18443;SDS011;9350;53.176;8.194;2023-11-22T14:33:55;6.75;;;4.00;;
18443;SDS011;9350;53.176;8.194;2023-11-22T14:36:22;9.57;;;4.53;;
18443;SDS011;9350;53.176;8.194;2023-11-22T14:38:49;6.70;;;3.88;;
18443;SDS011;9350;53.176;8.194;2023-11-22T14:41:19;3.03;;;2.65;;
18443;SDS011;9350;53.176;8.194;2023-11-22T14:43:46;6.18;;;3.60;;
18443;SDS011;9350;53.176;8.194;2023-11-22T14:46:13;23.63;;;8.77;;
18443;SDS011;9350;53.176;8.194;2023-11-22T14:48:40;10.20;;;4.57;;
18443;SDS011;9350;53.176;8.194;2023-11-22T14:51:08;8.68;;;4.55;;
18443;SDS011;9350;53.176;8.194;2023-11-22T14:53:36;5.57;;;3.30;;
18443;SDS011;9350;53.176;8.194;2023-11-22T14:56:04;3.85;;;2.83;;
18443;SDS011;9350;53.176;8.194;2023-11-22T14:58:32;6.88;;;3.78;;